Flight Track Log - Related Links

Times and Time Zones

All times are in EST time to prevent confusion due to time zone crossing. See the N400PU flight status page for this flight to view local times or setup timezone preferences in your user account.

Time Position Orientation Groundspeed Altitude Reporting Facility
EST Latitude Longitude Course Direction KTS MPH feet Rate Location/Type
Sun 10:12:03 AM 40.4114 -86.9744 193° South 176 203 1,900  Level Chicago Center
Sun 10:12:40 AM 40.3819 -86.9833 193° South 200 230 3,400 2,415 Climbing Chicago Center
Sun 10:13:25 AM 40.3400 -86.9564 154° Southeast 269 310 5,200 2,579 Climbing Chicago Center
Sun 10:14:27 AM 40.2683 -86.9094 153° Southeast 283 326 8,000 2,710 Climbing Chicago Center
Sun 10:15:29 AM 40.1919 -86.8617 154° Southeast 300 345 10,800 2,565 Climbing Chicago Center
Sun 10:16:31 AM 40.1114 -86.8111 154° Southeast 317 365 13,300 2,838 Climbing Chicago Center
Sun 10:16:43 AM 40.0781 -86.7903 154° Southeast 323 372 14,300 2,838 Climbing Chicago Center
Sun 10:17:45 AM 39.9936 -86.7375 154° Southeast 334 384 16,800 2,226 Climbing Chicago Center
Sun 10:18:47 AM 39.9086 -86.6842 154° Southeast 340 391 18,900 1,790 Climbing Chicago Center
Sun 10:19:49 AM 39.8208 -86.6306 155° Southeast 347 399 20,500 1,500 Climbing Chicago Center
Sun 10:20:51 AM 39.7275 -86.5719 154° Southeast 370 426 22,000 1,478 Climbing Chicago Center
Sun 10:22:03 AM 39.6108 -86.4981 154° Southeast 389 448 23,800 1,567 Climbing Indianapolis Center
Sun 10:23:05 AM 39.4858 -86.4461 162° South 397 457 25,500 1,548 Climbing Indianapolis Center
Sun 10:24:07 AM 39.3806 -86.4017 162° South 402 463 27,000 1,403 Climbing Indianapolis Center
Sun 10:25:09 AM 39.2731 -86.3575 162° South 406 467 28,400 1,258 Climbing Indianapolis Center
Sun 10:26:11 AM 39.1686 -86.2972 156° South 413 475 29,600 1,113 Climbing Indianapolis Center
Sun 10:27:13 AM 39.0650 -86.2256 152° Southeast 424 488 30,700 1,113 Climbing Indianapolis Center
Sun 10:28:15 AM 38.9381 -86.1386 152° Southeast 431 496 31,900 1,016 Climbing Indianapolis Center
Sun 10:29:17 AM 38.8342 -86.0678 152° Southeast 436 502 32,800 816 Climbing Indianapolis Center
Sun 10:30:20 AM 38.7261 -85.9953 152° Southeast 435 501 33,600 726 Climbing Indianapolis Center
Sun 10:31:21 AM 38.6161 -85.9200 152° Southeast 442 509 34,300 585 Climbing Indianapolis Center
Sun 10:32:23 AM 38.5044 -85.8447 152° Southeast 446 513 34,800 528 Climbing Indianapolis Center
Sun 10:33:26 AM 38.3586 -85.8072 169° South 440 506 35,400 528 Climbing Indianapolis Center
Sun 10:34:28 AM 38.2372 -85.7825 171° South 438 504 35,900 532 Climbing Indianapolis Center
Sun 10:35:30 AM 38.1136 -85.7592 172° South 443 510 36,500 532 Climbing Indianapolis Center
Sun 10:36:32 AM 37.9925 -85.7319 170° South 439 505 37,000 484 Climbing Indianapolis Center
Sun 10:37:34 AM 37.8764 -85.6675 156° South 451 519 37,500 532 Climbing Indianapolis Center
Sun 10:38:36 AM 37.7583 -85.6061 158° South 452 520 38,100 532 Climbing Indianapolis Center
Sun 10:39:38 AM 37.6428 -85.5431 157° South 452 520 38,600 435 Climbing Indianapolis Center
Sun 10:40:40 AM 37.5244 -85.4789 157° South 440 506 39,000 194 Climbing Indianapolis Center
Sun 10:41:42 AM 37.3892 -85.4056 157° South 452 520 39,000  Level Indianapolis Center
Sun 10:42:44 AM 37.2722 -85.3433 157° South 457 526 39,000  Level Indianapolis Center
Sun 10:43:46 AM 37.1508 -85.2797 157° South 467 537 39,000  Level Indianapolis Center
Sun 10:44:48 AM 37.0297 -85.2139 157° South 469 540 39,000  Level Indianapolis Center
Sun 10:45:50 AM 36.9072 -85.1500 157° South 475 547 39,000  Level Indianapolis Center
Sun 10:46:52 AM 36.7842 -85.0850 157° South 477 549 39,000  Level Indianapolis Center
Sun 10:47:54 AM 36.6361 -85.0078 157° South 480 552 39,000  Level Indianapolis Center
Sun 10:48:56 AM 36.5119 -84.9428 157° South 483 556 39,000  Level Indianapolis Center
Sun 10:49:58 AM 36.3878 -84.8783 157° South 481 554 39,000  Level Indianapolis Center
Sun 10:51:00 AM 36.2628 -84.8136 157° South 483 556 39,000  Level Indianapolis Center
Sun 10:52:02 AM 36.1383 -84.7483 157° South 483 556 39,000  Level Indianapolis Center
Sun 10:52:42 AM 36.0564 -84.7092 159° South 482 555 39,000  Level Atlanta Center
Sun 10:53:42 AM 35.9317 -84.6439 157° South 482 555 39,000  Level Atlanta Center
Sun 10:54:42 AM 35.8067 -84.5789 157° South 482 555 39,000  Level Atlanta Center
Sun 10:55:42 AM 35.6819 -84.5169 158° South 487 560 39,000 -150 Level Atlanta Center
Sun 10:56:42 AM 35.5569 -84.4522 157° South 487 560 38,700 -500 Descending Atlanta Center
Sun 10:57:42 AM 35.4300 -84.3881 158° South 493 567 38,000 -350 Descending Atlanta Center
Sun 10:58:42 AM 35.3006 -84.3239 158° South 493 567 38,000  Level Atlanta Center
Sun 10:59:42 AM 35.1736 -84.2597 158° South 493 567 38,000  Level Atlanta Center
Sun 11:00:42 AM 35.0442 -84.1961 158° South 493 567 38,000  Level Atlanta Center
Sun 11:01:42 AM 34.9128 -84.1300 158° South 498 573 38,000  Level Atlanta Center
Sun 11:02:42 AM 34.7731 -84.0589 157° South 498 573 38,000  Level Atlanta Center
Sun 11:03:42 AM 34.6458 -83.9908 156° South 498 573 38,000  Level Atlanta Center
Sun 11:04:42 AM 34.5164 -83.9278 158° South 498 573 38,000 -250 Level Atlanta Center
Sun 11:05:42 AM 34.3994 -83.8675 157° South 504 580 37,500 -500 Descending Atlanta Center
Sun 11:06:42 AM 34.2636 -83.8050 159° South 511 588 37,000 -250 Descending Atlanta Center
Sun 11:07:42 AM 34.1300 -83.7375 157° South 518 596 37,000  Level Atlanta Center
Sun 11:08:42 AM 33.9942 -83.6706 158° South 524 603 37,000  Level Atlanta Center
Sun 11:09:42 AM 33.8414 -83.5986 159° South 531 611 37,000  Level Atlanta Center
Sun 11:10:42 AM 33.7075 -83.5344 158° South 531 611 37,000  Level Atlanta Center
Sun 11:11:42 AM 33.5717 -83.4678 158° South 531 611 37,000  Level Atlanta Center
Sun 11:12:42 AM 33.4356 -83.4042 159° South 531 611 37,000 -500 Level Atlanta Center
Sun 11:13:42 AM 33.2997 -83.3406 159° South 531 611 36,000 -500 Descending Atlanta Center
Sun 11:14:42 AM 33.1656 -83.2719 157° South 531 611 36,000 -500 Level Atlanta Center
Sun 11:15:42 AM 33.0275 -83.2064 158° South 531 611 35,000 -500 Descending Atlanta Center
Sun 11:16:42 AM 32.8914 -83.1458 160° South 531 611 35,000 -450 Level Atlanta Center
Sun 11:17:42 AM 32.7783 -83.0900 157° South 523 602 34,100 -1,000 Descending Atlanta Center
Sun 11:18:42 AM 32.6483 -83.0275 158° South 507 583 33,000 -1,350 Descending Atlanta Center
Sun 11:19:42 AM 32.5142 -82.9672 159° South 507 583 31,400 -1,732 Descending Atlanta Center
Sun 11:21:56 AM 32.2397 -82.8336 158° South 489 563 27,400 -1,794 Descending Jacksonville Center
Sun 11:22:56 AM 32.1164 -82.7772 159° South 478 550 25,600 -1,700 Descending Jacksonville Center
Sun 11:23:56 AM 31.9953 -82.7211 159° South 473 544 24,000 -800 Descending Jacksonville Center
Sun 11:24:56 AM 31.8656 -82.6625 159° South 468 539 24,000  Level Jacksonville Center
Sun 11:25:56 AM 31.7444 -82.6044 158° South 463 533 24,000 -50 Level Jacksonville Center
Sun 11:26:56 AM 31.6233 -82.5486 159° South 463 533 23,900 -1,100 Descending Jacksonville Center
Sun 11:27:56 AM 31.5061 -82.4953 159° South 463 533 21,800 -2,100 Descending Jacksonville Center
Sun 11:28:56 AM 31.3911 -82.4375 157° South 455 524 19,700 -2,000 Descending Jacksonville Center
Sun 11:29:56 AM 31.2822 -82.3844 157° South 449 517 17,800 -2,000 Descending Jacksonville Center
Sun 11:30:56 AM 31.1756 -82.3342 158° South 428 493 15,700 -2,080 Descending Jacksonville Center
Sun 11:31:11 AM 31.1525 -82.3197 152° Southeast 402 463 15,200 -1,862 Descending Jacksonville Center
Sun 11:31:54 AM 31.0856 -82.2886 158° South 386 444 13,900 -1,867 Descending Jacksonville Center
Sun 11:31:56 AM 31.0772 -82.2814 143° Southeast 406 467 13,800 -1,869 Descending Jacksonville Center
Sun 11:32:55 AM 30.9808 -82.2286 155° Southeast 377 434 12,000 -1,700 Descending Jacksonville Center
Sun 11:32:56 AM 30.9831 -82.2311 316° Northwest 392 451 12,100 -98 Climbing Jacksonville Center
Sun 11:33:56 AM 30.9033 -82.1444 137° Southeast 387 445 11,900 -700 Descending Jacksonville Center
Sun 11:34:56 AM 30.8278 -82.0844 146° Southeast 365 420 10,700 -1,650 Descending Jacksonville Center
Sun 11:35:56 AM 30.7606 -82.0319 146° Southeast 326 375 8,600 -2,129 Descending Jacksonville Center
Sun 11:35:58 AM 30.7606 -82.0319 146° Southeast 277 319 8,500 -2,200 Descending Jacksonville Center
Sun 11:36:56 AM 30.6956 -81.9842 148° Southeast 294 338 6,400 -2,273 Descending Jacksonville Center
Sun 11:37:04 AM 30.6850 -81.9769 150° Southeast 276 318 6,000 -2,000 Descending Jacksonville Center
Sun 11:37:56 AM 30.6325 -81.9342 145° Southeast 279 321 4,400 -1,935 Descending Jacksonville Center
Sun 11:38:06 AM 30.6242 -81.9294 154° Southeast 262 302 4,000 -1,500 Descending Jacksonville Center
Sun 11:38:56 AM 30.5717 -81.8889 146° Southeast 274 315 2,900 -1,279 Descending Jacksonville Center
Sun 11:39:07 AM 30.5653 -81.8817 136° Southeast 260 299 2,700 -900 Descending Jacksonville Center
Sun 11:39:56 AM 30.5147 -81.8436 147° Southeast 264 304 2,000 -787 Descending Jacksonville Center
Sun 11:40:08 AM 30.5044 -81.8367 150° Southeast 255 293 1,900  Descending Jacksonville Center
Sun 11:40:56 AM 30.4750 -81.8103 142° Southeast 249 287 2,000 -197 Climbing Jacksonville Center
Sun 11:41:09 AM 30.4683 -81.7864 108° East 186 214 1,700 -973 Descending Jacksonville Center
Sun 11:42:10 AM 30.4806 -81.7428 72° East 121 139 800 -787 Descending Jacksonville Center
Sun 11:43:11 AM 30.4928 -81.7114 66° East 115 132 100 -689 Descending Jacksonville Center
Sun 11:45:00 AM 30.4941 -81.6878 120° Southeast  Level Estimated

Login

Don't have an account? Register now (free) for customized features, flight alerts, and more!